createdAt,value
2022-11-30T00:01:08.487Z,100354.69
2022-11-30T00:03:34.934Z,100354.75
2022-11-30T00:06:13.206Z,100356.59
2022-11-30T00:08:39.890Z,100349.50
2022-11-30T00:11:14.755Z,100351.34
2022-11-30T00:13:41.801Z,100352.13
2022-11-30T00:16:08.684Z,100357.31
2022-11-30T00:18:36.063Z,100351.25
2022-11-30T00:21:05.266Z,100355.69
2022-11-30T00:23:33.255Z,100348.72
2022-11-30T00:26:04.236Z,100347.91
2022-11-30T00:28:32.328Z,100339.03
2022-11-30T00:31:00.628Z,100341.69
2022-11-30T00:33:27.795Z,100334.66
2022-11-30T00:36:02.082Z,100350.47
2022-11-30T00:38:29.063Z,100346.88
2022-11-30T00:40:56.560Z,100345.03
2022-11-30T00:43:23.514Z,100344.19
2022-11-30T00:45:49.907Z,100342.41
2022-11-30T00:48:16.283Z,100344.06
2022-11-30T00:50:42.693Z,100333.59
2022-11-30T00:53:09.115Z,100333.56
2022-11-30T00:55:35.532Z,100335.25
2022-11-30T00:58:02.025Z,100330.91
2022-11-30T01:00:28.770Z,100333.44
2022-11-30T01:02:56.725Z,100338.81
2022-11-30T01:05:23.175Z,100333.56
2022-11-30T01:07:49.784Z,100329.13
2022-11-30T01:10:16.445Z,100332.63
2022-11-30T01:12:42.924Z,100330.81
2022-11-30T01:15:09.697Z,100334.31
2022-11-30T01:17:36.213Z,100343.91
2022-11-30T01:20:04.827Z,100342.22
2022-11-30T01:22:31.286Z,100353.53
2022-11-30T01:24:57.622Z,100347.34
2022-11-30T01:27:23.981Z,100348.16
2022-11-30T01:29:50.418Z,100356.91
2022-11-30T01:32:16.831Z,100356.06
2022-11-30T01:34:43.246Z,100350.81
2022-11-30T01:37:09.649Z,100363.09
2022-11-30T01:39:36.102Z,100358.84
2022-11-30T01:42:02.590Z,100357.97
2022-11-30T01:44:28.914Z,100350.94
2022-11-30T01:46:59.977Z,100354.56
2022-11-30T01:49:58.792Z,100354.69
2022-11-30T01:52:33.246Z,100358.97
2022-11-30T01:55:23.551Z,100349.44
2022-11-30T01:58:22.391Z,100359.66
2022-11-30T02:00:48.767Z,100368.47
2022-11-30T02:03:21.403Z,100365.97
2022-11-30T02:05:49.144Z,100351.13
2022-11-30T02:08:15.945Z,100351.13
2022-11-30T02:10:47.356Z,100355.56
2022-11-30T02:13:22.912Z,100355.63
2022-11-30T02:16:08.312Z,100346.00
2022-11-30T02:18:48.624Z,100356.50
2022-11-30T02:21:45.151Z,100361.75
2022-11-30T02:24:35.965Z,100361.00
2022-11-30T02:27:17.468Z,100357.38
2022-11-30T02:29:56.117Z,100360.94
2022-11-30T02:32:25.504Z,100360.88
2022-11-30T02:34:53.965Z,100365.31
2022-11-30T02:37:22.427Z,100355.75
2022-11-30T02:39:48.773Z,100350.47
2022-11-30T02:42:15.352Z,100361.91
2022-11-30T02:44:49.187Z,100362.81
2022-11-30T02:47:41.214Z,100363.75
2022-11-30T02:50:14.420Z,100368.00
2022-11-30T02:52:42.023Z,100367.94
2022-11-30T02:55:10.627Z,100374.13
2022-11-30T02:57:37.287Z,100369.75
2022-11-30T03:00:08.227Z,100374.13
2022-11-30T03:02:34.907Z,100366.25
2022-11-30T03:05:01.290Z,100370.56
2022-11-30T03:07:27.814Z,100365.31
2022-11-30T03:09:54.167Z,100374.13
2022-11-30T03:12:20.515Z,100379.38
2022-11-30T03:14:47.141Z,100374.19
2022-11-30T03:17:13.691Z,100375.13
2022-11-30T03:19:40.040Z,100377.69
2022-11-30T03:22:06.426Z,100375.91
2022-11-30T03:24:32.783Z,100380.31
2022-11-30T03:26:59.166Z,100381.16
2022-11-30T03:29:25.624Z,100385.50
2022-11-30T03:31:52.004Z,100381.09
2022-11-30T03:34:18.471Z,100379.38
2022-11-30T03:36:44.848Z,100383.72
2022-11-30T03:39:11.181Z,100378.47
2022-11-30T03:41:37.628Z,100380.25
2022-11-30T03:44:04.028Z,100381.09
2022-11-30T03:46:30.606Z,100381.09
2022-11-30T03:48:57.101Z,100381.16
2022-11-30T03:51:23.572Z,100381.22
2022-11-30T03:53:50.027Z,100384.81
2022-11-30T03:56:16.838Z,100387.38
2022-11-30T03:58:43.278Z,100381.34
2022-11-30T04:01:19.261Z,100390.16
2022-11-30T04:03:45.749Z,100390.00
2022-11-30T04:06:12.905Z,100390.00
2022-11-30T04:08:40.199Z,100386.47
2022-11-30T04:11:07.701Z,100388.19
2022-11-30T04:13:35.471Z,100390.81
2022-11-30T04:16:02.468Z,100385.50
2022-11-30T04:18:30.774Z,100393.44
2022-11-30T04:20:58.711Z,100385.56
2022-11-30T04:23:26.430Z,100382.94
2022-11-30T04:25:52.799Z,100386.47
2022-11-30T04:28:19.730Z,100386.47
2022-11-30T04:30:46.910Z,100383.91
2022-11-30T04:33:15.682Z,100395.28
2022-11-30T04:35:45.763Z,100394.34
2022-11-30T04:38:12.285Z,100394.44
2022-11-30T04:40:40.639Z,100398.81
2022-11-30T04:43:07.319Z,100391.88
2022-11-30T04:45:35.475Z,100387.53
2022-11-30T04:48:03.059Z,100387.59
2022-11-30T04:50:29.421Z,100392.91
2022-11-30T04:52:55.812Z,100392.97
2022-11-30T04:55:22.256Z,100395.66
2022-11-30T04:57:49.216Z,100395.66
2022-11-30T05:00:17.365Z,100398.28
2022-11-30T05:02:49.011Z,100394.78
2022-11-30T05:05:18.715Z,100400.91
2022-11-30T05:07:48.741Z,100402.75
2022-11-30T05:10:15.225Z,100399.25
2022-11-30T05:12:41.713Z,100401.13
2022-11-30T05:15:08.766Z,100406.44
2022-11-30T05:17:35.284Z,100403.00
2022-11-30T05:20:02.135Z,100409.22
2022-11-30T05:22:28.629Z,100404.91
2022-11-30T05:24:55.086Z,100408.56
2022-11-30T05:27:22.850Z,100407.69
2022-11-30T05:29:49.670Z,100415.72
2022-11-30T05:32:16.238Z,100415.78
2022-11-30T05:34:50.589Z,100413.22
2022-11-30T05:37:17.449Z,100415.88
2022-11-30T05:39:43.939Z,100414.25
2022-11-30T05:42:10.490Z,100417.78
2022-11-30T05:44:37.026Z,100415.16
2022-11-30T05:47:03.549Z,100418.69
2022-11-30T05:49:30.228Z,100421.31
2022-11-30T05:51:56.706Z,100421.31
2022-11-30T05:54:23.180Z,100423.94
2022-11-30T05:56:54.446Z,100421.31
2022-11-30T05:59:22.091Z,100425.72
2022-11-30T06:01:48.974Z,100430.97
2022-11-30T06:04:15.703Z,100430.09
2022-11-30T06:06:42.244Z,100444.16
2022-11-30T06:09:08.835Z,100443.28
2022-11-30T06:11:35.343Z,100451.22
2022-11-30T06:14:02.089Z,100450.38
2022-11-30T06:16:28.713Z,100447.81
2022-11-30T06:18:55.257Z,100453.94
2022-11-30T06:21:24.697Z,100461.81
2022-11-30T06:23:51.927Z,100466.19
2022-11-30T06:26:18.484Z,100464.44
2022-11-30T06:28:48.214Z,100460.94
2022-11-30T06:31:16.074Z,100469.56
2022-11-30T06:33:42.850Z,100468.66
2022-11-30T06:36:09.890Z,100468.56
2022-11-30T06:38:37.004Z,100467.69
2022-11-30T06:41:08.710Z,100464.19
2022-11-30T06:43:36.976Z,100461.44
2022-11-30T06:46:04.912Z,100464.03
2022-11-30T06:48:31.558Z,100463.16
2022-11-30T06:50:58.940Z,100464.06
2022-11-30T06:53:25.906Z,100464.03
2022-11-30T06:55:52.815Z,100469.34
2022-11-30T06:58:19.380Z,100471.91
2022-11-30T07:00:45.984Z,100472.75
2022-11-30T07:03:12.795Z,100476.22
2022-11-30T07:05:45.147Z,100473.59
2022-11-30T07:08:16.183Z,100477.16
2022-11-30T07:10:44.685Z,100472.75
2022-11-30T07:13:16.308Z,100478.03
2022-11-30T07:15:43.496Z,100477.16
2022-11-30T07:18:10.855Z,100485.03
2022-11-30T07:20:38.179Z,100476.28
2022-11-30T07:23:23.266Z,100489.41
2022-11-30T07:26:06.332Z,100489.47
2022-11-30T07:28:38.247Z,100488.63
2022-11-30T07:31:27.496Z,100496.56
2022-11-30T07:33:55.029Z,100489.41
2022-11-30T07:36:23.963Z,100491.25
2022-11-30T07:38:50.467Z,100499.13
2022-11-30T07:41:17.413Z,100492.16
2022-11-30T07:43:44.312Z,100507.06
2022-11-30T07:46:14.163Z,100511.50
2022-11-30T07:48:41.113Z,100513.28
2022-11-30T07:51:12.123Z,100512.44
2022-11-30T07:53:38.546Z,100508.03
2022-11-30T07:56:10.448Z,100510.72
2022-11-30T07:58:37.369Z,100511.50
2022-11-30T08:01:09.534Z,100513.28
2022-11-30T08:03:37.521Z,100515.00
2022-11-30T08:06:07.314Z,100521.97
2022-11-30T08:08:36.226Z,100516.69
2022-11-30T08:11:05.091Z,100526.28
2022-11-30T08:13:31.746Z,100529.78
2022-11-30T08:16:02.913Z,100526.34
2022-11-30T08:18:29.756Z,100527.16
2022-11-30T08:21:00.736Z,100536.84
2022-11-30T08:23:31.885Z,100533.38
2022-11-30T08:26:20.397Z,100542.22
2022-11-30T08:28:48.659Z,100537.72
2022-11-30T08:31:18.479Z,100536.78
2022-11-30T08:33:45.205Z,100543.78
2022-11-30T08:36:19.820Z,100544.63
2022-11-30T08:38:47.383Z,100543.78
2022-11-30T08:41:19.991Z,100547.28
2022-11-30T08:43:47.274Z,100556.81
2022-11-30T08:46:49.252Z,100558.59
2022-11-30T08:49:24.161Z,100560.31
2022-11-30T08:54:39.091Z,100569.94
2022-11-30T08:57:05.763Z,100573.50
2022-11-30T08:59:32.252Z,100569.16
2022-11-30T09:01:58.829Z,100573.50
2022-11-30T09:04:25.459Z,100570.94
2022-11-30T09:06:51.987Z,100578.75
2022-11-30T09:09:18.663Z,100576.19
2022-11-30T09:11:45.213Z,100581.38
2022-11-30T09:14:11.695Z,100580.47
2022-11-30T09:16:38.189Z,100584.88
2022-11-30T09:19:04.743Z,100583.94
2022-11-30T09:21:31.487Z,100579.56
2022-11-30T09:23:58.029Z,100582.19
2022-11-30T09:26:27.698Z,100588.28
2022-11-30T09:28:54.486Z,100597.03
2022-11-30T09:31:23.379Z,100597.94
2022-11-30T09:33:50.534Z,100589.16
2022-11-30T09:36:19.919Z,100590.06
2022-11-30T09:38:47.534Z,100593.53
2022-11-30T09:41:38.594Z,100587.53
2022-11-30T09:44:25.761Z,100591.03
2022-11-30T09:47:46.637Z,100594.56
2022-11-30T09:50:22.403Z,100589.25
2022-11-30T09:52:54.144Z,100594.50
2022-11-30T09:55:30.667Z,100598.97
2022-11-30T09:58:02.055Z,100594.63
2022-11-30T10:00:28.779Z,100598.16
2022-11-30T10:02:58.464Z,100597.38
2022-11-30T10:05:27.170Z,100583.44
2022-11-30T10:07:53.599Z,100588.72
2022-11-30T10:11:08.951Z,100574.97
2022-11-30T10:13:53.983Z,100580.22
2022-11-30T10:16:39.311Z,100582.00
2022-11-30T10:19:37.955Z,100574.09
2022-11-30T10:22:41.847Z,100582.06
2022-11-30T10:25:17.643Z,100573.25
2022-11-30T10:27:54.103Z,100582.09
2022-11-30T10:30:40.986Z,100576.97
2022-11-30T10:33:19.398Z,100577.84
2022-11-30T10:35:56.143Z,100575.22
2022-11-30T10:38:48.453Z,100578.81
2022-11-30T10:41:20.953Z,100578.69
2022-11-30T10:44:07.073Z,100574.38
2022-11-30T10:46:38.158Z,100571.63
2022-11-30T10:49:14.360Z,100578.56
2022-11-30T10:51:45.140Z,100575.03
2022-11-30T10:54:17.178Z,100575.88
2022-11-30T10:56:43.630Z,100574.88
2022-11-30T10:59:22.582Z,100579.34
2022-11-30T11:01:49.991Z,100581.81
2022-11-30T11:04:17.763Z,100587.06
2022-11-30T11:06:52.617Z,100579.34
2022-11-30T11:12:24.434Z,100575.78
2022-11-30T11:15:27.423Z,100579.44
2022-11-30T11:18:12.077Z,100575.78
2022-11-30T11:20:42.465Z,100581.88
2022-11-30T11:23:23.802Z,100589.94
2022-11-30T11:25:53.073Z,100594.16
2022-11-30T11:28:21.924Z,100584.59
2022-11-30T11:30:48.588Z,100593.28
2022-11-30T11:33:15.049Z,100591.59
2022-11-30T11:36:08.019Z,100591.75
2022-11-30T11:38:43.611Z,100582.97
2022-11-30T11:41:30.176Z,100592.63
2022-11-30T11:44:00.695Z,100594.25
2022-11-30T11:46:27.232Z,100585.59
2022-11-30T11:49:03.524Z,100593.63
2022-11-30T11:51:35.793Z,100593.63
2022-11-30T11:54:25.877Z,100601.56
2022-11-30T11:56:54.873Z,100599.69
2022-11-30T11:59:39.649Z,100598.09
2022-11-30T12:02:31.981Z,100596.31
2022-11-30T12:05:12.375Z,100602.38
2022-11-30T12:07:46.632Z,100603.16
2022-11-30T12:13:21.241Z,100607.38
2022-11-30T12:16:10.301Z,100603.06
2022-11-30T12:18:58.089Z,100603.97
2022-11-30T12:21:44.618Z,100600.47
2022-11-30T12:24:26.154Z,100608.22
2022-11-30T12:27:14.021Z,100603.91
2022-11-30T12:30:09.714Z,100608.25
2022-11-30T12:32:44.889Z,100609.88
2022-11-30T12:35:29.513Z,100612.50
2022-11-30T12:38:08.089Z,100615.94
2022-11-30T12:40:56.289Z,100612.44
2022-11-30T12:43:41.544Z,100609.00
2022-11-30T12:46:30.899Z,100604.63
2022-11-30T12:49:54.368Z,100616.88
2022-11-30T12:53:11.405Z,100614.28
2022-11-30T12:55:51.377Z,100610.75
2022-11-30T12:58:30.300Z,100612.59
2022-11-30T13:01:15.032Z,100610.88
2022-11-30T13:04:01.313Z,100612.69
2022-11-30T13:06:35.042Z,100610.06
2022-11-30T13:09:18.314Z,100611.91
2022-11-30T13:11:53.771Z,100618.81
2022-11-30T13:14:25.646Z,100610.94
2022-11-30T13:17:19.078Z,100618.13
2022-11-30T13:19:55.407Z,100613.63
2022-11-30T13:23:10.442Z,100613.75
2022-11-30T13:26:10.093Z,100614.72
2022-11-30T13:29:05.638Z,100613.13
2022-11-30T13:31:41.606Z,100613.13
2022-11-30T13:34:26.762Z,100615.88
2022-11-30T13:37:12.626Z,100611.47
2022-11-30T13:39:52.734Z,100618.44
2022-11-30T13:42:50.108Z,100615.06
2022-11-30T13:45:25.664Z,100625.50
2022-11-30T13:47:54.733Z,100622.94
2022-11-30T13:50:48.491Z,100624.00
2022-11-30T13:53:24.389Z,100624.88
2022-11-30T13:56:03.341Z,100620.47
2022-11-30T13:58:30.473Z,100620.47
2022-11-30T14:01:23.692Z,100623.28
2022-11-30T14:04:22.697Z,100628.56
2022-11-30T14:06:55.133Z,100630.31
2022-11-30T14:09:39.731Z,100630.41
2022-11-30T14:12:31.225Z,100641.81
2022-11-30T14:14:58.585Z,100632.97
2022-11-30T14:17:32.774Z,100641.88
2022-11-30T14:20:07.774Z,100635.75
2022-11-30T14:22:34.725Z,100640.16
2022-11-30T14:25:02.930Z,100640.25
2022-11-30T14:27:30.349Z,100649.88
2022-11-30T14:30:01.768Z,100647.28
2022-11-30T14:32:40.253Z,100651.75
2022-11-30T14:35:11.559Z,100654.28
2022-11-30T14:37:44.478Z,100652.53
2022-11-30T14:40:18.968Z,100652.53
2022-11-30T14:42:54.268Z,100654.38
2022-11-30T14:45:26.946Z,100654.31
2022-11-30T14:48:04.821Z,100649.22
2022-11-30T14:50:32.160Z,100656.94
2022-11-30T14:53:29.743Z,100660.63
2022-11-30T14:56:02.028Z,100656.19
2022-11-30T14:58:45.529Z,100656.28
2022-11-30T15:01:20.453Z,100660.69
2022-11-30T15:03:49.048Z,100661.53
2022-11-30T15:06:19.224Z,100665.06
2022-11-30T15:08:53.865Z,100669.50
2022-11-30T15:11:21.640Z,100663.38
2022-11-30T15:13:55.925Z,100670.50
2022-11-30T15:16:22.318Z,100671.31
2022-11-30T15:18:49.610Z,100669.59
2022-11-30T15:21:20.365Z,100665.31
2022-11-30T15:23:51.263Z,100664.41
2022-11-30T15:26:24.276Z,100663.56
2022-11-30T15:28:59.171Z,100667.97
2022-11-30T15:31:28.129Z,100660.03
2022-11-30T15:33:54.605Z,100660.88
2022-11-30T15:36:32.981Z,100669.66
2022-11-30T15:39:03.666Z,100659.22
2022-11-30T15:41:31.925Z,100670.56
2022-11-30T15:43:58.361Z,100674.09
2022-11-30T15:46:32.401Z,100675.00
2022-11-30T15:49:31.871Z,100670.72
2022-11-30T15:52:15.523Z,100675.00
2022-11-30T15:54:44.816Z,100686.34
2022-11-30T15:57:11.658Z,100688.91
2022-11-30T15:59:38.026Z,100688.13
2022-11-30T16:02:08.291Z,100702.06
2022-11-30T16:05:09.558Z,100699.56
2022-11-30T16:07:50.880Z,100696.00
2022-11-30T16:10:20.207Z,100702.00
2022-11-30T16:12:49.956Z,100701.13
2022-11-30T16:15:25.264Z,100702.91
2022-11-30T16:17:53.815Z,100708.94
2022-11-30T16:20:21.014Z,100701.94
2022-11-30T16:22:48.825Z,100712.38
2022-11-30T16:25:17.852Z,100713.19
2022-11-30T16:27:44.471Z,100716.69
2022-11-30T16:30:15.841Z,100714.91
2022-11-30T16:32:42.592Z,100722.66
2022-11-30T16:35:30.240Z,100719.31
2022-11-30T16:37:56.574Z,100720.06
2022-11-30T16:40:23.000Z,100719.22
2022-11-30T16:42:51.092Z,100725.28
2022-11-30T16:45:23.893Z,100725.34
2022-11-30T16:47:51.561Z,100716.50
2022-11-30T16:50:19.395Z,100720.06
2022-11-30T16:52:46.434Z,100717.44
2022-11-30T16:55:18.936Z,100717.44
2022-11-30T16:57:46.453Z,100717.44
2022-11-30T17:00:15.633Z,100717.44
2022-11-30T17:03:04.182Z,100724.47
2022-11-30T17:05:31.702Z,100720.97
2022-11-30T17:07:58.078Z,100725.34
2022-11-30T17:30:22.115Z,100753.78
2022-11-30T17:32:48.514Z,100750.28
2022-11-30T17:35:16.538Z,100745.03
2022-11-30T17:37:43.124Z,100751.19
2022-11-30T17:40:15.255Z,100745.88
2022-11-30T17:52:20.964Z,100751.91
2022-11-30T17:54:47.751Z,100749.31
2022-11-30T17:57:14.444Z,100761.59
2022-11-30T17:59:41.549Z,100762.56
2022-11-30T18:02:11.404Z,100758.28
2022-11-30T18:04:38.036Z,100760.81
2022-11-30T18:07:04.528Z,100772.19
2022-11-30T18:09:30.945Z,100771.25
2022-11-30T18:11:57.507Z,100768.66
2022-11-30T18:14:23.878Z,100762.50
2022-11-30T18:16:50.510Z,100772.94
2022-11-30T18:19:17.878Z,100770.28
2022-11-30T18:21:44.370Z,100775.50
2022-11-30T18:24:12.063Z,100772.00
2022-11-30T18:26:39.889Z,100774.56
2022-11-30T18:29:07.522Z,100771.09
2022-11-30T18:31:34.115Z,100781.59
2022-11-30T18:34:03.251Z,100781.63
2022-11-30T18:36:30.780Z,100784.22
2022-11-30T18:38:57.176Z,100780.72
2022-11-30T18:41:26.063Z,100788.59
2022-11-30T18:43:53.544Z,100793.78
2022-11-30T18:46:20.782Z,100788.53
2022-11-30T18:48:51.563Z,100797.31
2022-11-30T18:51:24.005Z,100792.91
2022-11-30T18:53:57.699Z,100791.16
2022-11-30T18:56:27.724Z,100789.34
2022-11-30T18:58:59.542Z,100787.59
2022-11-30T19:01:27.426Z,100792.78
2022-11-30T19:03:57.984Z,100791.88
2022-11-30T19:06:28.160Z,100796.22
2022-11-30T19:08:54.808Z,100797.09
2022-11-30T19:11:21.226Z,100790.97
2022-11-30T19:13:47.738Z,100797.09
2022-11-30T19:16:16.793Z,100800.63
2022-11-30T19:18:44.974Z,100801.47
2022-11-30T19:21:13.956Z,100798.00
2022-11-30T19:23:40.562Z,100797.94
2022-11-30T19:26:08.346Z,100803.19
2022-11-30T19:28:36.590Z,100804.09
2022-11-30T19:31:14.569Z,100805.03
2022-11-30T19:33:43.232Z,100809.31
2022-11-30T19:36:14.887Z,100806.78
2022-11-30T19:38:41.524Z,100813.69
2022-11-30T19:41:09.871Z,100814.56
2022-11-30T19:43:37.099Z,100823.31
2022-11-30T19:46:08.623Z,100825.13
2022-11-30T19:48:35.838Z,100826.81
2022-11-30T19:51:10.006Z,100826.88
2022-11-30T19:53:39.760Z,100825.13
2022-11-30T19:56:13.620Z,100822.59
2022-11-30T19:58:41.143Z,100833.88
2022-11-30T20:01:12.495Z,100828.69
2022-11-30T20:03:38.965Z,100829.56
2022-11-30T20:06:05.720Z,100827.84
2022-11-30T20:08:32.115Z,100832.22
2022-11-30T20:10:58.701Z,100833.09
2022-11-30T20:13:25.078Z,100838.34
2022-11-30T20:15:51.676Z,100832.22
2022-11-30T20:18:18.078Z,100836.56
2022-11-30T20:20:44.694Z,100832.22
2022-11-30T20:23:11.059Z,100833.94
2022-11-30T20:25:37.532Z,100834.84
2022-11-30T20:28:08.265Z,100830.50
2022-11-30T20:30:37.827Z,100827.88
2022-11-30T20:33:05.171Z,100834.97
2022-11-30T20:35:31.518Z,100832.25
2022-11-30T20:37:57.936Z,100833.16
2022-11-30T20:40:24.315Z,100832.34
2022-11-30T20:42:51.825Z,100832.25
2022-11-30T20:45:18.161Z,100833.16
2022-11-30T20:47:44.625Z,100821.78
2022-11-30T20:50:11.337Z,100832.25
2022-11-30T20:52:38.402Z,100822.66
2022-11-30T20:55:06.317Z,100816.53
2022-11-30T20:57:33.034Z,100828.69
2022-11-30T20:59:59.486Z,100824.34
2022-11-30T21:02:25.940Z,100824.34
2022-11-30T21:04:53.523Z,100825.22
2022-11-30T21:07:19.950Z,100823.50
2022-11-30T21:09:46.475Z,100825.22
2022-11-30T21:12:12.982Z,100824.34
2022-11-30T21:14:39.621Z,100827.88
2022-11-30T21:17:06.010Z,100830.56
2022-11-30T21:19:33.623Z,100835.00
2022-11-30T21:21:59.981Z,100831.47
2022-11-30T21:24:26.535Z,100837.59
2022-11-30T21:26:52.993Z,100841.94
2022-11-30T21:29:19.705Z,100835.84
2022-11-30T21:31:46.266Z,100840.25
2022-11-30T21:34:13.281Z,100843.72
2022-11-30T21:36:39.928Z,100836.75
2022-11-30T21:39:07.556Z,100841.13
2022-11-30T21:41:36.055Z,100844.63
2022-11-30T21:44:03.539Z,100850.72
2022-11-30T21:46:30.140Z,100846.31
2022-11-30T21:48:56.754Z,100848.06
2022-11-30T21:51:25.982Z,100839.38
2022-11-30T21:53:54.703Z,100842.00
2022-11-30T21:56:30.101Z,100843.84
2022-11-30T21:58:57.590Z,100849.88
2022-11-30T22:01:33.123Z,100843.84
2022-11-30T22:04:01.183Z,100842.03
2022-11-30T22:06:29.342Z,100849.00
2022-11-30T22:08:57.308Z,100839.38
2022-11-30T22:11:23.784Z,100839.38
2022-11-30T22:13:52.111Z,100838.47
2022-11-30T22:16:19.892Z,100839.34
2022-11-30T22:18:46.845Z,100835.84
2022-11-30T22:21:14.941Z,100834.09
2022-11-30T22:23:47.409Z,100848.13
2022-11-30T22:26:20.490Z,100846.31
2022-11-30T22:28:51.541Z,100841.91
2022-11-30T22:31:20.442Z,100844.41
2022-11-30T22:33:47.414Z,100851.44
2022-11-30T22:36:16.118Z,100848.00
2022-11-30T22:38:42.960Z,100846.25
2022-11-30T22:41:18.416Z,100849.88
2022-11-30T22:43:46.322Z,100844.53
2022-11-30T22:46:17.582Z,100842.88
2022-11-30T22:48:45.379Z,100848.00
2022-11-30T22:51:26.182Z,100845.53
2022-11-30T22:53:53.847Z,100849.78
2022-11-30T22:56:25.895Z,100857.66
2022-11-30T22:58:54.251Z,100862.91
2022-11-30T23:01:26.021Z,100861.19
2022-11-30T23:03:56.260Z,100855.06
2022-11-30T23:06:23.880Z,100855.06
2022-11-30T23:08:51.867Z,100857.69
2022-11-30T23:11:21.543Z,100860.34
2022-11-30T23:13:48.572Z,100859.44
2022-11-30T23:16:15.577Z,100861.22
2022-11-30T23:18:48.432Z,100856.94
2022-11-30T23:21:20.844Z,100860.34
2022-11-30T23:23:48.561Z,100861.22
2022-11-30T23:26:16.469Z,100862.06
2022-11-30T23:28:44.908Z,100860.34
2022-11-30T23:31:32.161Z,100856.88
2022-11-30T23:34:00.349Z,100866.44
2022-11-30T23:36:27.249Z,100858.59
2022-11-30T23:38:57.165Z,100870.81
2022-11-30T23:41:24.605Z,100869.94
